Time;durP1;ratioP1;P1;durP2;ratioP2;P2;SDS_P1;SDS_P2;PMS_P1;PMS_P2;Temp;Humidity;BMP_temperature;BMP_pressure;BME280_temperature;BME280_humidity;BME280_pressure;Samples;Min_cycle;Max_cycle;Signal;HPM_P1;HPM_P2
2021/10/22 00:00:46;;;;;;;13.45;3.78;;;6.80;99.90;;;;;;4926013;29;20047;-85
2021/10/22 00:07:56;;;;;;;10.10;3.60;;;6.40;99.90;;;;;;4933228;29;20055;-86
2021/10/22 00:10:50;;;;;;;9.88;5.63;;;7.50;99.90;;;;;;4927065;29;20055;-83
2021/10/22 00:14:02;;;;;;;9.05;3.22;;;6.40;99.90;;;;;;4965610;28;20054;-85
2021/10/22 00:17:02;;;;;;;10.38;3.38;;;6.40;99.90;;;;;;4952371;28;20043;-86
2021/10/22 00:19:54;;;;;;;8.15;3.45;;;6.50;99.90;;;;;;4968483;28;20051;-87
2021/10/22 00:23:11;;;;;;;12.00;3.97;;;6.50;99.90;;;;;;4982572;28;20047;-84
2021/10/22 00:26:33;;;;;;;;;;;;;;;;;;;;;
2021/10/22 00:30:27;;;;;;;9.18;3.17;;;6.20;99.90;;;;;;4962112;28;20050;-87
2021/10/22 00:33:45;;;;;;;12.43;3.53;;;6.60;99.90;;;;;;4967111;28;20062;-85
2021/10/22 00:40:25;;;;;;;;;;;;;;;;;;;;;
2021/10/22 00:44:03;;;;;;;6.30;3.78;;;6.60;99.90;;;;;;4951366;28;20555;-85
2021/10/22 00:47:27;;;;;;;6.97;3.88;;;6.20;99.90;;;;;;4979996;28;20047;-86
2021/10/22 00:50:06;;;;;;;;;;;;;;;;;;;;;
2021/10/22 00:52:56;;;;;;;;;;;;;;;;;;;;;
2021/10/22 00:55:40;;;;;;;14.05;3.97;;;6.60;99.90;;;;;;4965316;28;20066;-87
2021/10/22 00:58:28;;;;;;;8.07;3.17;;;6.60;99.90;;;;;;4974967;28;20059;-85
2021/10/22 01:01:00;;;;;;;8.27;3.33;;;6.60;99.90;;;;;;4935717;29;20116;-86
2021/10/22 01:03:32;;;;;;;;;;;6.50;99.90;;;;;;4969747;28;20061;-86
2021/10/22 01:06:47;;;;;;;8.63;4.60;;;6.50;99.90;;;;;;4946358;28;19932;-87
2021/10/22 01:09:24;;;;;;;17.52;5.95;;;6.60;99.90;;;;;;4969096;29;20051;-87
2021/10/22 01:11:53;;;;;;;11.82;2.28;;;7.10;99.90;;;;;;4968510;29;20047;-87
2021/10/22 01:14:23;;;;;;;11.93;3.97;;;6.50;99.90;;;;;;4967734;29;20058;-88
2021/10/22 01:17:37;;;;;;;8.80;4.15;;;6.50;99.90;;;;;;4931340;29;20051;-88
2021/10/22 01:20:26;;;;;;;11.88;3.45;;;6.40;99.90;;;;;;4949987;29;20056;-87
2021/10/22 01:23:06;;;;;;;13.55;4.63;;;5.60;99.90;;;;;;4969719;28;20051;-86
2021/10/22 01:25:35;;;;;;;5.78;3.00;;;6.40;99.90;;;;;;4968173;28;20047;-86
2021/10/22 01:28:10;;;;;;;15.98;5.25;;;6.40;99.90;;;;;;4969214;29;20064;-86
2021/10/22 01:30:57;;;;;;;11.73;3.58;;;6.40;99.90;;;;;;4953770;29;20070;-84
2021/10/22 01:33:57;;;;;;;5.72;2.53;;;5.40;99.90;;;;;;4967646;29;20039;-85
2021/10/22 01:36:33;;;;;;;15.63;4.07;;;6.10;99.90;;;;;;4957836;29;20059;-86
2021/10/22 01:39:19;;;;;;;8.77;3.78;;;6.40;99.90;;;;;;4970605;29;20492;-85
2021/10/22 01:41:50;;;;;;;9.77;4.07;;;6.50;99.90;;;;;;4958087;29;20059;-87
2021/10/22 01:44:29;;;;;;;5.57;3.00;;;6.40;99.90;;;;;;4967703;28;20135;-84
2021/10/22 01:46:58;;;;;;;9.65;3.38;;;6.40;99.90;;;;;;4958734;28;20053;-90
2021/10/22 01:49:29;;;;;;;5.78;2.55;;;6.40;99.90;;;;;;4952380;29;20058;-83
2021/10/22 01:54:57;;;;;;;10.57;3.58;;;6.50;99.90;;;;;;4964564;28;20047;-83
2021/10/22 01:58:11;;;;;;;23.70;4.13;;;5.30;99.90;;;;;;4969709;28;20057;-85
2021/10/22 02:01:23;;;;;;;9.88;3.20;;;6.50;99.90;;;;;;4968650;28;20051;-86
2021/10/22 02:03:52;;;;;;;12.57;3.47;;;6.50;99.90;;;;;;4957469;29;20106;-87
2021/10/22 02:06:24;;;;;;;9.93;3.30;;;6.50;99.90;;;;;;4969231;28;20051;-87
2021/10/22 02:08:57;;;;;;;14.27;4.65;;;6.20;99.90;;;;;;4970750;28;20046;-87
2021/10/22 02:11:56;;;;;;;13.77;4.10;;;7.20;99.90;;;;;;4957364;28;20065;-85
2021/10/22 02:14:56;;;;;;;21.05;4.05;;;7.10;99.90;;;;;;4974076;28;20066;-85
2021/10/22 02:17:31;;;;;;;7.97;3.17;;;6.60;99.90;;;;;;4972843;28;20054;-85
2021/10/22 02:20:25;;;;;;;12.98;5.75;;;6.60;99.90;;;;;;4976154;28;20057;-89
2021/10/22 02:22:54;;;;;;;11.25;4.45;;;6.60;99.90;;;;;;4958867;28;20051;-87
2021/10/22 02:25:31;;;;;;;8.18;2.45;;;6.60;99.90;;;;;;4959162;28;20061;-86
2021/10/22 02:28:02;;;;;;;15.07;4.78;;;7.50;99.90;;;;;;4975049;28;20053;-90
2021/10/22 02:31:16;;;;;;;18.95;4.78;;;6.60;99.90;;;;;;4940166;28;20065;-86
2021/10/22 02:33:48;;;;;;;10.32;3.63;;;6.60;99.90;;;;;;4971661;28;20525;-88
2021/10/22 02:36:24;;;;;;;8.75;2.90;;;6.60;99.90;;;;;;4955537;28;20065;-86
2021/10/22 02:39:35;;;;;;;;;;;;;;;;;;;;;
2021/10/22 02:42:42;;;;;;;10.10;3.70;;;6.60;99.90;;;;;;4981401;28;20046;-84
2021/10/22 02:45:24;;;;;;;9.15;2.42;;;5.90;99.90;;;;;;4959522;28;20054;-85
2021/10/22 02:48:44;;;;;;;11.18;3.53;;;7.70;99.90;;;;;;4968668;28;20042;-88
2021/10/22 02:51:35;;;;;;;11.35;2.78;;;6.00;99.90;;;;;;4951902;28;20062;-85
2021/10/22 02:54:09;;;;;;;16.50;5.22;;;6.60;99.90;;;;;;4968820;28;20053;-86
2021/10/22 02:56:47;;;;;;;15.30;4.82;;;6.60;99.90;;;;;;4967527;28;20039;-86
2021/10/22 02:59:38;;;;;;;8.80;3.42;;;6.70;99.90;;;;;;4967695;28;20046;-85
2021/10/22 03:02:34;;;;;;;19.80;3.60;;;6.70;99.90;;;;;;4968809;28;20047;-84
2021/10/22 03:05:12;;;;;;;15.60;3.08;;;6.60;99.90;;;;;;4984549;28;20054;-86
2021/10/22 03:10:38;;;;;;;20.02;5.28;;;6.60;99.90;;;;;;4964009;29;20047;-85
2021/10/22 03:14:21;;;;;;;20.67;3.13;;;6.80;99.90;;;;;;4951178;29;20051;-84
2021/10/22 03:16:46;;;;;;;14.23;3.75;;;6.60;99.90;;;;;;4958500;29;20059;-84
2021/10/22 03:19:46;;;;;;;4.28;2.67;;;6.60;99.90;;;;;;4965880;29;20628;-86
2021/10/22 03:23:07;;;;;;;13.80;4.97;;;6.70;99.90;;;;;;4926311;29;20059;-82
2021/10/22 03:25:40;;;;;;;11.55;3.63;;;6.60;99.90;;;;;;4963387;29;20051;-84
2021/10/22 03:28:17;;;;;;;10.75;4.70;;;7.50;99.90;;;;;;4964851;29;20079;-86
2021/10/22 03:31:17;;;;;;;8.18;2.83;;;6.50;99.90;;;;;;4965337;29;20054;-83
2021/10/22 03:34:09;;;;;;;12.15;4.72;;;6.50;99.90;;;;;;4964560;28;20055;-84
2021/10/22 03:36:45;;;;;;;9.85;2.88;;;6.50;99.90;;;;;;4932739;29;20065;-84
2021/10/22 03:39:36;;;;;;;9.82;5.03;;;6.50;99.90;;;;;;4947667;29;20063;-83
2021/10/22 03:42:07;;;;;;;21.17;3.72;;;5.40;99.90;;;;;;4941387;29;20061;-86
2021/10/22 03:45:16;;;;;;;8.98;2.78;;;6.40;99.90;;;;;;4959277;28;20070;-88
2021/10/22 03:47:53;;;;;;;16.65;3.30;;;6.30;99.90;;;;;;4965114;29;20053;-84
2021/10/22 03:50:25;;;;;;;13.07;5.18;;;6.40;99.90;;;;;;4948852;29;20051;-83
2021/10/22 03:53:09;;;;;;;10.48;4.28;;;6.30;99.90;;;;;;4965085;29;20055;-84
2021/10/22 03:56:57;;;;;;;13.63;2.88;;;6.50;99.90;;;;;;4963820;29;20460;-84
2021/10/22 03:59:35;;;;;;;10.82;3.90;;;6.40;99.90;;;;;;4963583;29;20073;-84
2021/10/22 04:02:12;;;;;;;13.65;3.63;;;6.30;99.90;;;;;;4964483;29;20047;-84
2021/10/22 04:04:53;;;;;;;;;;;;;;;;;;;;;
2021/10/22 04:07:56;;;;;;;12.35;3.70;;;6.30;99.90;;;;;;4952216;28;20058;-84
2021/10/22 04:10:24;;;;;;;11.68;4.00;;;6.30;99.90;;;;;;4967733;29;20051;-85
2021/10/22 04:12:57;;;;;;;7.18;4.10;;;6.30;99.90;;;;;;4968594;29;20047;-84
2021/10/22 04:15:28;;;;;;;7.95;3.10;;;6.30;99.90;;;;;;4967632;29;20424;-86
2021/10/22 04:17:56;;;;;;;8.88;3.70;;;6.20;99.90;;;;;;4948284;29;20047;-85
2021/10/22 04:20:54;;;;;;;10.52;4.03;;;6.20;99.90;;;;;;4969125;29;20374;-83
2021/10/22 04:23:22;;;;;;;17.67;4.85;;;6.30;99.90;;;;;;4954674;28;20055;-85
2021/10/22 04:26:13;;;;;;;;;;;6.20;99.90;;;;;;4933623;29;20051;-86
2021/10/22 04:29:08;;;;;;;9.32;3.90;;;6.40;99.90;;;;;;4968739;29;19926;-85
2021/10/22 04:31:57;;;;;;;9.45;3.67;;;6.40;99.90;;;;;;4956304;29;20061;-84
2021/10/22 04:35:32;;;;;;;11.18;3.90;;;7.10;99.90;;;;;;4949275;29;20047;-83
2021/10/22 04:41:17;;;;;;;14.65;5.18;;;6.30;99.90;;;;;;4968148;29;20054;-85
2021/10/22 04:44:03;;;;;;;9.45;3.85;;;6.20;99.90;;;;;;4968898;29;20065;-89
2021/10/22 04:47:23;;;;;;;5.45;2.85;;;6.30;99.90;;;;;;4959225;29;20053;-85
2021/10/22 04:49:52;;;;;;;9.18;2.65;;;6.30;99.90;;;;;;4966175;28;20050;-86
2021/10/22 04:52:54;;;;;;;8.90;3.60;;;6.30;99.90;;;;;;4948512;29;20066;-86
2021/10/22 04:55:32;;;;;;;11.73;3.10;;;6.30;99.90;;;;;;4956987;29;20489;-85
2021/10/22 04:58:00;;;;;;;12.30;4.32;;;6.40;99.90;;;;;;4969684;29;20055;-87
2021/10/22 05:01:30;;;;;;;15.00;3.60;;;6.30;99.90;;;;;;4953397;29;20048;-87
2021/10/22 05:04:05;;;;;;;8.13;2.65;;;6.30;99.90;;;;;;4949695;29;20482;-89
2021/10/22 05:07:13;;;;;;;10.07;3.80;;;7.00;99.90;;;;;;4963387;28;20051;-86
2021/10/22 05:12:43;;;;;;;22.15;6.68;;;6.30;99.90;;;;;;4955307;28;20073;-87
2021/10/22 05:15:12;;;;;;;10.20;4.43;;;6.30;99.90;;;;;;4957343;28;20046;-88
2021/10/22 05:18:28;;;;;;;14.18;4.70;;;5.10;99.90;;;;;;4990251;28;20056;-89
2021/10/22 05:21:05;;;;;;;13.90;4.00;;;6.40;99.90;;;;;;4970640;28;20046;-86
2021/10/22 05:24:01;;;;;;;10.18;3.60;;;6.30;99.90;;;;;;4987874;28;20050;-87
2021/10/22 05:26:29;;;;;;;10.65;4.20;;;6.70;99.90;;;;;;4953071;28;20054;-93
2021/10/22 05:28:57;;;;;;;7.75;3.80;;;6.30;99.90;;;;;;4977362;28;20047;-89
2021/10/22 05:31:29;;;;;;;8.60;4.18;;;6.40;99.90;;;;;;4968910;28;20043;-88
2021/10/22 05:34:21;;;;;;;10.07;3.28;;;5.80;99.90;;;;;;4968492;28;20042;-90
2021/10/22 05:36:52;;;;;;;9.32;4.10;;;6.30;99.90;;;;;;4952869;28;20058;-88
2021/10/22 05:39:23;;;;;;;15.35;4.30;;;6.40;99.90;;;;;;4938480;28;20054;-91
2021/10/22 05:41:51;;;;;;;14.30;3.17;;;6.40;99.90;;;;;;4968411;28;20044;-88
2021/10/22 05:44:36;;;;;;;14.18;3.63;;;6.30;99.90;;;;;;4953105;28;20070;-93
2021/10/22 05:47:05;;;;;;;21.55;4.93;;;6.30;99.90;;;;;;4952127;28;20065;-91
2021/10/22 05:49:36;;;;;;;13.02;2.85;;;6.40;99.90;;;;;;4968355;28;20047;-86
2021/10/22 05:52:05;;;;;;;6.32;3.20;;;6.30;99.90;;;;;;4968011;28;20047;-90
2021/10/22 05:54:43;;;;;;;14.48;5.65;;;6.30;99.90;;;;;;4966746;28;20050;-86
2021/10/22 05:57:17;;;;;;;7.53;3.20;;;6.30;99.90;;;;;;4985413;28;20428;-87
2021/10/22 05:59:45;;;;;;;12.52;3.28;;;6.30;99.90;;;;;;4946214;28;20066;-91
2021/10/22 06:02:21;;;;;;;15.25;3.50;;;5.50;99.90;;;;;;4951961;28;20058;-86
2021/10/22 06:04:54;;;;;;;11.88;2.78;;;6.20;99.90;;;;;;4937540;28;20047;-90
2021/10/22 06:07:39;;;;;;;12.98;3.40;;;6.30;99.90;;;;;;4959437;29;20064;-88
2021/10/22 06:10:19;;;;;;;10.13;3.25;;;6.30;99.90;;;;;;4959681;28;20031;-86
2021/10/22 06:12:56;;;;;;;10.75;3.72;;;6.30;99.90;;;;;;4955449;29;20055;-87
2021/10/22 06:15:43;;;;;;;9.15;3.65;;;7.40;99.90;;;;;;4963620;29;20043;-84
2021/10/22 06:18:15;;;;;;;8.48;3.75;;;6.40;99.90;;;;;;4961849;29;20059;-88
2021/10/22 06:20:54;;;;;;;13.15;3.45;;;6.30;99.90;;;;;;4929111;29;20051;-90
2021/10/22 06:27:01;;;;;;;10.90;2.92;;;5.90;99.90;;;;;;4947593;28;20060;-88
2021/10/22 06:29:47;;;;;;;6.20;2.50;;;6.60;99.90;;;;;;4925233;29;20062;-86
2021/10/22 06:32:25;;;;;;;8.75;2.97;;;6.20;99.90;;;;;;4940003;29;20058;-86
2021/10/22 06:35:36;;;;;;;;;;;;;;;;;;;;;
2021/10/22 06:39:00;;;;;;;12.73;5.22;;;6.40;99.90;;;;;;4959695;28;20059;-84
2021/10/22 06:42:14;;;;;;;12.50;5.03;;;6.60;99.90;;;;;;4956785;29;20051;-87
2021/10/22 06:44:46;;;;;;;10.77;3.58;;;6.20;99.90;;;;;;4946805;29;20055;-86
2021/10/22 06:47:51;;;;;;;11.03;3.40;;;6.40;99.90;;;;;;4959424;29;20493;-85
2021/10/22 06:50:28;;;;;;;8.88;2.95;;;6.50;99.90;;;;;;4964101;29;20055;-89
2021/10/22 06:53:32;;;;;;;;;;;;;;;;;;;;;
2021/10/22 06:56:07;;;;;;;7.60;2.92;;;6.50;99.90;;;;;;4948811;28;20054;-87
2021/10/22 06:58:38;;;;;;;9.45;4.03;;;6.70;99.90;;;;;;4945635;29;20565;-90
2021/10/22 07:01:10;;;;;;;8.88;2.88;;;6.60;99.90;;;;;;4939163;28;20051;-88
2021/10/22 07:03:43;;;;;;;22.92;4.07;;;6.60;99.90;;;;;;4968087;29;20055;-88
2021/10/22 07:09:04;;;;;;;4.80;2.63;;;6.80;99.90;;;;;;4946030;29;20404;-91
2021/10/22 07:11:31;;;;;;;10.35;3.05;;;6.90;99.90;;;;;;4934386;29;20062;-89
2021/10/22 07:14:01;;;;;;;12.30;3.50;;;8.40;99.90;;;;;;4946294;29;20047;-90
2021/10/22 07:16:30;;;;;;;7.20;3.33;;;7.70;99.90;;;;;;4932093;29;20050;-89
2021/10/22 07:18:59;;;;;;;6.70;2.60;;;7.30;99.90;;;;;;4929701;29;20058;-89
2021/10/22 07:21:27;;;;;;;6.45;3.47;;;7.30;99.90;;;;;;4932682;29;20047;-90
2021/10/22 07:23:58;;;;;;;14.73;2.72;;;7.90;99.90;;;;;;4926589;29;20414;-92
2021/10/22 07:26:27;;;;;;;15.45;3.30;;;7.30;99.90;;;;;;4930337;29;20130;-88
2021/10/22 07:28:57;;;;;;;9.57;3.53;;;7.50;99.90;;;;;;4942630;29;20051;-91
2021/10/22 07:31:25;;;;;;;7.57;3.67;;;7.50;99.90;;;;;;4928181;28;20079;-88
2021/10/22 07:33:59;;;;;;;10.50;5.50;;;7.60;99.90;;;;;;4962857;28;20047;-90
2021/10/22 07:36:34;;;;;;;10.90;3.17;;;7.60;99.90;;;;;;4940396;29;20768;-88
2021/10/22 07:39:06;;;;;;;11.77;3.33;;;7.70;99.90;;;;;;4939198;29;20066;-89
2021/10/22 07:41:46;;;;;;;11.50;2.67;;;7.70;99.90;;;;;;4929442;29;20070;-91
2021/10/22 07:44:15;;;;;;;8.73;2.50;;;7.70;99.90;;;;;;4947393;28;20067;-92
2021/10/22 07:46:45;;;;;;;7.70;2.72;;;7.90;99.90;;;;;;4920833;29;20149;-87
2021/10/22 07:49:17;;;;;;;12.25;4.75;;;8.00;99.90;;;;;;4969803;28;20050;-89
2021/10/22 07:51:45;;;;;;;7.22;2.80;;;9.10;99.90;;;;;;4920391;29;20048;-87
2021/10/22 07:54:14;;;;;;;14.05;6.75;;;8.60;99.90;;;;;;4958066;28;20055;-89
2021/10/22 07:56:44;;;;;;;9.40;3.50;;;7.90;99.90;;;;;;4918083;29;20214;-89
2021/10/22 07:59:13;;;;;;;18.23;4.65;;;7.90;99.90;;;;;;4951290;28;20059;-90
2021/10/22 08:02:03;;;;;;;13.95;3.85;;;7.90;99.90;;;;;;4951360;29;20028;-89
2021/10/22 08:04:31;;;;;;;9.75;2.78;;;7.90;99.90;;;;;;4967996;28;20061;-90
2021/10/22 08:06:59;;;;;;;7.47;2.72;;;7.90;99.90;;;;;;4964760;28;20051;-90
2021/10/22 08:09:27;;;;;;;6.20;2.25;;;7.90;99.90;;;;;;4943424;29;20047;-90
2021/10/22 08:11:55;;;;;;;11.23;2.92;;;8.00;99.90;;;;;;4945114;29;20051;-92
2021/10/22 08:14:23;;;;;;;12.07;3.28;;;8.70;99.90;;;;;;4940361;29;20067;-92
2021/10/22 08:16:51;;;;;;;8.25;3.67;;;9.40;99.90;;;;;;4940081;29;20040;-91
2021/10/22 08:19:21;;;;;;;4.80;2.03;;;8.00;99.90;;;;;;4933573;29;20071;-88
2021/10/22 08:22:25;;;;;;;19.13;3.33;;;8.10;99.90;;;;;;4942233;29;20052;-89
2021/10/22 08:24:46;;;;;;;4.30;2.17;;;8.30;99.90;;;;;;4934320;29;20056;-92
2021/10/22 08:27:14;;;;;;;10.20;3.80;;;8.30;99.90;;;;;;4933651;29;20055;-90
2021/10/22 08:29:42;;;;;;;7.00;2.80;;;8.50;99.90;;;;;;4936811;29;20040;-89
2021/10/22 08:32:11;;;;;;;8.05;2.13;;;8.40;99.90;;;;;;4933830;29;20052;-91
2021/10/22 08:34:40;;;;;;;14.40;2.72;;;8.50;99.90;;;;;;4929689;29;20048;-93
2021/10/22 08:37:08;;;;;;;7.68;2.22;;;8.60;99.90;;;;;;4934772;29;20047;-87
2021/10/22 08:39:42;;;;;;;11.38;2.90;;;8.60;99.90;;;;;;4936004;29;20059;-89
2021/10/22 08:42:14;;;;;;;13.70;4.97;;;8.70;99.90;;;;;;4937758;29;20048;-89
2021/10/22 08:44:43;;;;;;;11.43;3.78;;;8.70;99.90;;;;;;4936140;29;20062;-92
2021/10/22 08:47:11;;;;;;;14.70;2.47;;;8.70;99.90;;;;;;4931716;29;20047;-90
2021/10/22 08:49:40;;;;;;;11.48;3.20;;;8.80;99.90;;;;;;4932601;29;20055;-90
2021/10/22 08:52:09;;;;;;;5.82;2.85;;;8.80;99.90;;;;;;4924977;29;20036;-86
2021/10/22 08:54:39;;;;;;;11.10;2.83;;;8.90;99.90;;;;;;4931737;29;20051;-88
2021/10/22 08:57:15;;;;;;;8.25;2.97;;;9.00;99.90;;;;;;4930678;29;20051;-86
2021/10/22 08:59:43;;;;;;;12.43;3.03;;;9.00;99.90;;;;;;4934472;29;20056;-85
2021/10/22 09:02:22;;;;;;;12.75;3.63;;;9.10;99.90;;;;;;4938524;29;20040;-87
2021/10/22 09:04:59;;;;;;;4.22;2.30;;;9.10;99.90;;;;;;4940509;28;20051;-88
2021/10/22 09:07:51;;;;;;;13.60;2.80;;;9.20;99.90;;;;;;4955673;28;20050;-86
2021/10/22 09:10:25;;;;;;;5.47;2.30;;;9.40;99.90;;;;;;4939607;29;20062;-87
2021/10/22 09:13:01;;;;;;;9.57;2.17;;;9.60;99.90;;;;;;4924329;29;20058;-85
2021/10/22 09:15:34;;;;;;;11.57;4.20;;;9.60;99.90;;;;;;4920069;29;20093;-86
2021/10/22 09:18:07;;;;;;;5.85;1.67;;;9.60;99.90;;;;;;4934826;29;20046;-85
2021/10/22 09:20:50;;;;;;;11.90;2.55;;;9.80;99.90;;;;;;4952923;28;20043;-83
2021/10/22 09:23:35;;;;;;;7.28;2.65;;;9.90;99.90;;;;;;4953796;28;20054;-87
2021/10/22 09:26:23;;;;;;;11.88;2.25;;;10.60;99.90;;;;;;4953007;28;20058;-85
2021/10/22 09:28:52;;;;;;;10.93;2.33;;;10.00;99.90;;;;;;4927879;29;20055;-89
2021/10/22 09:31:22;;;;;;;14.57;3.63;;;10.10;99.90;;;;;;4938600;29;20407;-87
2021/10/22 09:33:59;;;;;;;12.90;2.83;;;10.10;99.90;;;;;;4949269;28;20051;-87
2021/10/22 09:36:40;;;;;;;8.27;4.00;;;10.20;99.90;;;;;;4917571;29;20055;-86
2021/10/22 09:39:18;;;;;;;12.85;3.38;;;10.30;99.90;;;;;;4912181;28;20453;-87
2021/10/22 09:41:53;;;;;;;9.70;2.42;;;10.30;99.90;;;;;;4936960;29;20053;-87
2021/10/22 09:44:23;;;;;;;4.18;1.50;;;10.40;99.90;;;;;;4952604;28;20055;-84
2021/10/22 09:47:10;;;;;;;6.50;2.60;;;10.40;99.90;;;;;;4944702;28;20074;-83
2021/10/22 09:49:46;;;;;;;10.45;3.85;;;10.50;99.90;;;;;;4952961;28;20047;-87
2021/10/22 09:52:26;;;;;;;6.88;2.63;;;10.60;99.90;;;;;;4916367;29;20530;-87
2021/10/22 09:55:10;;;;;;;8.93;2.00;;;10.70;99.90;;;;;;4948819;28;20054;-86
2021/10/22 09:57:39;;;;;;;8.50;2.17;;;10.70;99.90;;;;;;4950404;28;20286;-87
2021/10/22 10:00:10;;;;;;;11.32;2.30;;;10.80;99.90;;;;;;4938016;29;20338;-87
2021/10/22 10:02:38;;;;;;;;;;;10.80;99.90;;;;;;4918543;29;20043;-89
2021/10/22 10:05:08;;;;;;;4.43;1.95;;;10.80;99.90;;;;;;4938172;29;19929;-85
2021/10/22 10:07:38;;;;;;;9.60;2.13;;;10.90;99.90;;;;;;4954165;28;20055;-89
2021/10/22 10:10:07;;;;;;;6.80;2.15;;;12.20;99.90;;;;;;4954972;28;20051;-84
2021/10/22 10:12:39;;;;;;;11.68;2.65;;;10.90;99.90;;;;;;4924945;29;20059;-86
2021/10/22 10:15:10;;;;;;;4.63;2.13;;;10.90;99.90;;;;;;4935408;28;20070;-87
2021/10/22 10:17:49;;;;;;;7.35;2.08;;;10.90;99.90;;;;;;4942977;29;20051;-88
2021/10/22 10:20:29;;;;;;;4.10;2.40;;;10.90;99.90;;;;;;4956816;28;20051;-87
2021/10/22 10:22:57;;;;;;;5.18;2.10;;;10.90;99.90;;;;;;4921420;29;20061;-88
2021/10/22 10:25:27;;;;;;;6.80;2.65;;;10.90;99.90;;;;;;4921646;28;20056;-87
2021/10/22 10:27:57;;;;;;;7.22;2.88;;;11.00;99.90;;;;;;4917429;29;20058;-87
2021/10/22 10:30:32;;;;;;;2.50;1.40;;;11.00;99.90;;;;;;4905397;29;20047;-87
2021/10/22 10:33:06;;;;;;;9.50;4.32;;;11.00;99.90;;;;;;4945450;28;20047;-86
2021/10/22 10:35:36;;;;;;;8.32;2.33;;;11.10;99.90;;;;;;4937079;29;20051;-87
2021/10/22 10:38:08;;;;;;;14.98;2.97;;;11.10;99.90;;;;;;4936629;29;20058;-87
2021/10/22 10:40:37;;;;;;;6.75;2.00;;;11.10;99.90;;;;;;4899354;29;20066;-89
2021/10/22 10:43:23;;;;;;;8.02;2.35;;;11.20;99.90;;;;;;4924527;29;20519;-86
2021/10/22 10:45:52;;;;;;;8.77;2.22;;;11.30;99.90;;;;;;4920988;29;20084;-88
2021/10/22 10:48:21;;;;;;;9.52;3.58;;;11.40;99.90;;;;;;4948524;28;20047;-89
2021/10/22 10:50:54;;;;;;;13.15;2.95;;;11.40;99.90;;;;;;4924368;29;20062;-88
2021/10/22 10:53:38;;;;;;;8.52;4.00;;;11.50;99.90;;;;;;4910086;29;20047;-90
2021/10/22 10:56:21;;;;;;;6.50;2.00;;;11.60;99.90;;;;;;4931454;28;20051;-89
2021/10/22 10:58:50;;;;;;;5.57;1.88;;;11.60;99.90;;;;;;4934961;29;20055;-87
2021/10/22 11:01:25;;;;;;;13.50;3.33;;;11.70;99.90;;;;;;4933480;28;20050;-88
2021/10/22 11:03:55;;;;;;;6.78;2.03;;;11.70;99.90;;;;;;4908295;29;20051;-89
2021/10/22 11:06:48;;;;;;;10.45;3.65;;;11.70;99.90;;;;;;4933352;28;20063;-89
2021/10/22 11:09:27;;;;;;;12.15;2.75;;;11.80;99.90;;;;;;4911670;29;20067;-88
2021/10/22 11:12:02;;;;;;;7.10;3.28;;;11.90;99.90;;;;;;4935741;29;20058;-90
2021/10/22 11:14:43;;;;;;;3.88;1.83;;;11.90;99.90;;;;;;4932986;29;20064;-88
2021/10/22 11:17:27;;;;;;;9.40;2.22;;;11.90;99.90;;;;;;4938447;29;20082;-86
2021/10/22 11:20:00;;;;;;;4.30;2.53;;;12.00;99.90;;;;;;4944707;29;20043;-93
2021/10/22 11:22:29;;;;;;;6.60;1.77;;;12.00;99.90;;;;;;4926402;29;20062;-91
2021/10/22 11:24:59;;;;;;;9.55;3.78;;;12.10;99.90;;;;;;4936710;29;20058;-87
2021/10/22 11:27:28;;;;;;;6.90;1.63;;;12.20;99.90;;;;;;4922278;28;20058;-89
2021/10/22 11:29:59;;;;;;;6.00;2.13;;;12.20;99.90;;;;;;4916131;29;20055;-88
2021/10/22 11:32:29;;;;;;;11.07;2.65;;;12.20;99.90;;;;;;4924341;28;20047;-92
2021/10/22 11:35:05;;;;;;;4.40;1.55;;;11.70;99.90;;;;;;4921950;29;20571;-92
2021/10/22 11:37:39;;;;;;;6.28;2.60;;;12.40;99.90;;;;;;4918055;28;20040;-91
2021/10/22 11:40:12;;;;;;;3.58;1.63;;;12.40;99.90;;;;;;4935056;28;20051;-91
2021/10/22 11:42:43;;;;;;;5.90;1.58;;;12.50;99.90;;;;;;4946030;28;20051;-88
2021/10/22 11:45:19;;;;;;;3.92;1.30;;;12.50;99.90;;;;;;4951223;29;20047;-91
2021/10/22 11:47:50;;;;;;;4.82;1.20;;;12.60;99.90;;;;;;4909989;29;20507;-91
2021/10/22 11:50:28;;;;;;;6.15;2.50;;;12.70;99.90;;;;;;4929643;29;20059;-92
2021/10/22 11:53:13;;;;;;;6.57;1.80;;;12.80;99.90;;;;;;4922179;29;20051;-91
2021/10/22 11:56:00;;;;;;;4.53;1.63;;;12.80;99.90;;;;;;4938011;29;20055;-92
2021/10/22 11:58:40;;;;;;;6.10;1.80;;;12.80;99.90;;;;;;4918121;29;20051;-92
2021/10/22 12:01:08;;;;;;;6.00;2.33;;;12.80;99.90;;;;;;4940416;29;20159;-87
2021/10/22 12:03:45;;;;;;;6.00;1.98;;;12.90;99.90;;;;;;4935367;29;20063;-94
2021/10/22 12:06:24;;;;;;;9.70;4.13;;;13.00;99.90;;;;;;4935950;29;20055;-90
2021/10/22 12:08:54;;;;;;;6.75;1.58;;;13.10;99.90;;;;;;4937198;29;20059;-92
2021/10/22 12:11:34;;;;;;;3.17;1.33;;;13.30;99.90;;;;;;4921469;28;20059;-90
2021/10/22 12:14:14;;;;;;;5.25;1.50;;;13.40;99.90;;;;;;4918964;29;20090;-92
2021/10/22 12:16:45;;;;;;;5.63;1.75;;;13.50;99.90;;;;;;4940901;29;20043;-91
2021/10/22 12:19:16;;;;;;;;;;;13.50;99.90;;;;;;4956897;28;20368;-92
2021/10/22 12:21:44;;;;;;;2.55;1.85;;;13.50;99.90;;;;;;4941691;28;19926;-88
2021/10/22 12:24:12;;;;;;;5.75;1.80;;;13.40;99.90;;;;;;4941947;29;20051;-89
2021/10/22 12:26:40;;;;;;;6.15;1.95;;;13.40;99.90;;;;;;4924460;29;20066;-90
2021/10/22 12:29:12;;;;;;;3.72;1.27;;;13.40;99.90;;;;;;4938034;29;20059;-90
2021/10/22 12:31:48;;;;;;;4.93;1.80;;;13.30;99.90;;;;;;4943505;29;20408;-89
2021/10/22 12:34:30;;;;;;;4.65;1.67;;;13.30;99.90;;;;;;4930681;29;20062;-95
2021/10/22 12:37:14;;;;;;;8.30;1.83;;;13.40;99.90;;;;;;4928408;29;20430;-88
2021/10/22 12:39:48;;;;;;;6.45;1.92;;;13.40;99.90;;;;;;4935416;29;20051;-93
2021/10/22 12:42:28;;;;;;;4.93;2.08;;;13.40;99.90;;;;;;4939359;29;20047;-88
2021/10/22 12:45:22;;;;;;;5.85;1.30;;;13.40;99.90;;;;;;4952176;29;20044;-92
2021/10/22 12:48:07;;;;;;;6.15;1.98;;;13.50;99.90;;;;;;4927602;29;20059;-93
2021/10/22 12:50:39;;;;;;;5.85;1.88;;;13.60;99.90;;;;;;4940308;29;20039;-89
2021/10/22 12:53:15;;;;;;;5.68;1.70;;;13.70;99.90;;;;;;4930321;29;20399;-90
2021/10/22 12:55:45;;;;;;;2.67;1.65;;;13.70;99.90;;;;;;4939120;29;20054;-90
2021/10/22 12:58:20;;;;;;;2.05;1.17;;;13.60;99.90;;;;;;4929103;29;20055;-90
2021/10/22 13:01:16;;;;;;;12.32;2.17;;;13.60;99.90;;;;;;4925111;29;20075;-91
2021/10/22 13:03:49;;;;;;;2.88;1.33;;;13.60;99.90;;;;;;4923676;29;20059;-90
2021/10/22 13:15:27;;;;;;;;;;;13.40;99.90;;;;;;4922175;29;20052;-91
2021/10/22 13:22:56;;;;;;;3.20;1.80;;;13.30;99.90;;;;;;4939754;29;20071;-92
2021/10/22 13:25:24;;;;;;;5.47;1.30;;;13.40;99.90;;;;;;4952864;29;20055;-93
2021/10/22 13:27:53;;;;;;;6.55;1.67;;;13.50;99.90;;;;;;4943506;29;20076;-90
2021/10/22 13:30:30;;;;;;;6.38;1.70;;;13.70;99.90;;;;;;4939781;29;20056;-91
2021/10/22 13:33:01;;;;;;;2.30;1.10;;;13.80;99.90;;;;;;4952613;29;20039;-89
2021/10/22 13:35:29;;;;;;;4.10;1.13;;;13.90;99.90;;;;;;4931735;29;20083;-92
2021/10/22 13:37:58;;;;;;;4.53;1.10;;;14.00;99.90;;;;;;4956988;29;20051;-91
2021/10/22 13:40:26;;;;;;;1.42;1.05;;;14.10;99.90;;;;;;4934042;29;20055;-89
2021/10/22 13:42:55;;;;;;;5.10;1.60;;;14.20;99.90;;;;;;4935842;29;20044;-92
2021/10/22 13:45:23;;;;;;;4.75;1.35;;;14.20;99.80;;;;;;4937855;29;20064;-91
2021/10/22 13:47:51;;;;;;;5.18;1.92;;;14.30;99.30;;;;;;4914265;29;20056;-91
2021/10/22 13:50:19;;;;;;;2.30;0.90;;;14.30;99.30;;;;;;4934891;29;20071;-89
2021/10/22 13:52:47;;;;;;;3.22;1.00;;;14.20;99.00;;;;;;4949854;29;20400;-91
2021/10/22 13:55:17;;;;;;;3.13;1.25;;;14.10;98.70;;;;;;4921495;29;20903;-89
2021/10/22 13:57:50;;;;;;;6.15;1.20;;;14.00;98.60;;;;;;4930375;29;20508;-92
2021/10/22 14:00:19;;;;;;;3.17;1.05;;;14.00;98.80;;;;;;4902051;29;20043;-87
2021/10/22 14:02:50;;;;;;;3.47;0.95;;;13.90;98.70;;;;;;4936475;29;20052;-90
2021/10/22 14:05:18;;;;;;;5.45;1.15;;;13.80;98.90;;;;;;4920860;29;20075;-89
2021/10/22 14:07:48;;;;;;;3.22;1.42;;;14.40;99.10;;;;;;4924270;29;20052;-88
2021/10/22 14:10:23;;;;;;;3.08;1.05;;;13.70;98.90;;;;;;4918393;29;20055;-90
2021/10/22 14:13:11;;;;;;;4.90;1.20;;;13.70;99.20;;;;;;4928677;29;20052;-90
2021/10/22 14:29:08;;;;;;;1.52;0.98;;;13.60;99.50;;;;;;4943486;29;20426;-94
2021/10/22 14:31:40;;;;;;;5.22;1.33;;;13.60;99.30;;;;;;4940954;29;20063;-91
2021/10/22 14:34:08;;;;;;;10.45;3.25;;;13.60;99.00;;;;;;4933619;29;20056;-92
2021/10/22 14:36:43;;;;;;;4.13;1.02;;;13.60;99.60;;;;;;4939242;29;20059;-90
2021/10/22 14:39:12;;;;;;;2.53;1.45;;;13.50;99.60;;;;;;4938830;29;20048;-95
2021/10/22 14:41:41;;;;;;;5.13;1.58;;;13.50;99.70;;;;;;4942708;29;20503;-90
2021/10/22 14:44:18;;;;;;;6.70;1.48;;;13.60;99.80;;;;;;4946115;28;20055;-88
2021/10/22 14:47:11;;;;;;;5.95;1.30;;;13.50;99.80;;;;;;4937931;29;20043;-91
2021/10/22 14:49:45;;;;;;;2.78;1.30;;;13.50;99.80;;;;;;4952217;29;20055;-91
2021/10/22 14:52:18;;;;;;;8.70;1.23;;;13.50;99.70;;;;;;4936585;29;20063;-92
2021/10/22 14:54:52;;;;;;;5.63;1.88;;;13.40;99.90;;;;;;4928297;29;20055;-93
2021/10/22 14:57:21;;;;;;;4.55;1.33;;;13.40;99.90;;;;;;4925392;29;20067;-93
2021/10/22 14:59:50;;;;;;;6.60;1.45;;;13.40;99.90;;;;;;4939792;29;20055;-90